< Typhoon 199603 1996 Season Typhoon 199605 >
Typhoon 199604 (CAM)
General InformationTrack Information on Google MapsDetailed Wind InformationList of All Images || Disaster Info.ResourceGoogle EarthGE AnimationAtom FeedGeoJSON
Detalied Best Track (Time Zone = UTC)
Year Month Day Hour Lat. Long. Pressure (hPa) Wind (kt) Class Image Chart
1996 5 18 06 14.2 114.0 1004 0 2 Image Chart
1996 5 18 12 14.6 114.4 1004 0 2 Image Chart
1996 5 18 18 14.9 114.5 1002 0 2 Image Chart
1996 5 19 00 15.1 114.5 1002 0 2 Image Chart
1996 5 19 06 15.3 114.6 1002 0 2 Image Chart
1996 5 19 12 15.7 114.6 1000 0 2 Image Chart
1996 5 19 18 16.0 114.7 1000 0 2 Image Chart
1996 5 20 00 16.5 115.1 1000 0 2 Image Chart
1996 5 20 06 17.2 115.5 1000 0 2 Image Chart
1996 5 20 12 17.8 115.9 998 35 3 Image Chart
1996 5 20 18 18.2 116.2 994 40 3 Image Chart
1996 5 21 00 18.4 116.4 994 40 3 Image Chart
1996 5 21 06 18.7 116.7 994 40 3 Image Chart
1996 5 21 12 18.9 117.3 994 40 3 Image Chart
1996 5 21 18 19.0 118.1 994 40 3 Image Chart
1996 5 22 00 19.2 118.9 994 40 3 Image Chart
1996 5 22 06 19.6 119.5 994 40 3 Image Chart
1996 5 22 12 19.9 120.2 994 40 3 Image Chart
1996 5 22 18 20.4 121.3 994 40 3 Image Chart
1996 5 23 00 20.9 122.5 994 40 3 Image Chart
1996 5 23 06 21.5 123.6 994 40 3 Image Chart
1996 5 23 09 21.7 124.1 994 40 3 Image Chart
1996 5 23 12 22.0 124.5 994 40 3 Image Chart
1996 5 23 15 22.4 125.5 996 40 3 Image Chart
1996 5 23 18 23.0 126.9 1000 0 2 Image Chart
1996 5 24 00 23.9 128.2 1004 0 2 Image Chart
1996 5 24 06 24.5 130.4 1004 0 2 Image Chart
1996 5 24 12 25.0 132.0 1006 0 6 Image Chart
1996 5 24 18 25.0 133.0 1006 0 6 Image Chart
1996 5 25 00 26.0 135.0 1010 0 6 Image Chart
1996 5 25 06 26.0 136.0 1010 0 6 Image Chart
1996 5 25 12 26.0 137.0 1012 0 6 Image Chart
1996 5 25 18 26.0 138.0 1010 0 6 Image Chart
1996 5 26 00 27.0 139.0 1012 0 6 Image Chart
Japan Meteorological Agency Best Track Data | Correction Date : 1997-01-07
< Typhoon 199603 1996 Season Typhoon 199605 >

Help